Dennisville, NJ (08214)

11:13 AM EST on December 06, 2016 (GMT -0500)
| | Change Station

Elev -9999 ft 0.00 °N, 0.00 °E | Updated

Rain
Rain
48 °F
Feels Like 48 °F
N
13
Wind Variable Wind from East
Gusts 18 mph

Today
High -- | Low -- °F
--% Chance of Precip.
Yesterday
High -- | Low -- °F
Precip. -- in
Pressure 30.08 in
Visibility 10.0 miles
Clouds Overcast 10000 ft
Dew Point 40 °F
Humidity 74%
Rainfall --
Snow Depth Not available.
7:04 AM 4:36 PM
Waxing Crescent, 43% visible
METAR KWWD 061556Z AUTO 08006KT 10SM OVC100 08/04 A3007 RMK AO2 SLP184 T00780044 $
Pressure 30.08 in
Visibility 10.0 miles
Clouds Overcast 10000 ft
Dew Point 40 °F
Humidity 74%
Rainfall --
Snow Depth Not available.
7:04 AM 4:36 PM
Waxing Crescent, 43% visible
METAR KWWD 061556Z AUTO 08006KT 10SM OVC100 08/04 A3007 RMK AO2 SLP184 T00780044 $

10-Day Weather Forecast

Almanac

Astronomy

Dec. 06, 2016 Rise Set
Actual Time
Civil Twilight
Nautical Twilight
Astronomical Twilight
Moon
Length of Visible Light
Length of Day
Tomorrow will be .
, % of the Moon is Illuminated

Today's Extremes

State Highs State Lows

Community

WunderPhotos

Upload Photos

1,955,969 photos uploaded!

WunderBlog® & News

Nearby

Air Quality

  Air Quality AQ Index Pollutant
Not available.

Snow Depth

Station Depth Elevation

Earthquake Activity

City Distance Mag. Time & Date
Minimum magnitude displayed is 2.5.

Coastal Water Temperatures

Place Temperature

Stations

Nearby Weather Stations

Station Location Temp. Windchill Dew Point Humidity Wind Precip. Elev Updated Type
                   

Watches & Warnings

There are currently no watches in effect.